This is the latest recevied weather packets stored in our database for station/object KD8FRE. If no packets are shown the sender has not sent any weather packets the latest 10 day(s).
| Time | Temp. | Humidity | Pressure | Rain* | Wind** | Luminosity | Snow |
|---|---|---|---|---|---|---|---|
| 1777945334 | 18.89° C | 62% | 1000.3 hPa | 0 mm | - | 0 W/m² | - |
| 1777945031 | 19.44° C | 61% | 1000.3 hPa | 0 mm | - | 0 W/m² | - |
| 1777944728 | 19.44° C | 62% | 1000.2 hPa | 0 mm | - | 0 W/m² | - |
| 1777944426 | 18.89° C | 62% | 1000.3 hPa | 0 mm | - | 0 W/m² | - |
| 1777944123 | 18.89° C | 63% | 1000.2 hPa | 0 mm | - | 0 W/m² | - |
| 1777943818 | 18.89° C | 63% | 1000.2 hPa | 0 mm | - | 0 W/m² | - |
| 1777943516 | 18.33° C | 66% | 1000.2 hPa | 0 mm | - | 0 W/m² | - |
| 1777943211 | 18.33° C | 66% | 1000.1 hPa | 0 mm | - | 0 W/m² | - |
| 1777942909 | 18.33° C | 66% | 1000.1 hPa | 0 mm | - | 0 W/m² | - |
| 1777942604 | 18.33° C | 66% | 1000.2 hPa | 0 mm | - | 0 W/m² | - |
| 1777942301 | 18.33° C | 66% | 999.8 hPa | 0 mm | - | 0 W/m² | - |
| 1777941998 | 18.33° C | 66% | 999.9 hPa | 0 mm | - | 1 W/m² | - |
| 1777941695 | 18.33° C | 66% | 999.8 hPa | 0 mm | - | 2 W/m² | - |
| 1777941392 | 18.89° C | 65% | 999.8 hPa | 0 mm | - | 3 W/m² | - |
| 1777941090 | 18.89° C | 64% | 999.8 hPa | 0 mm | - | 6 W/m² | - |
| 1777940785 | 18.89° C | 65% | 999.7 hPa | 0 mm | - | 10 W/m² | - |
| 1777940484 | 18.33° C | 67% | 999.7 hPa | 0 mm | - | 14 W/m² | - |
| 1777940181 | 18.33° C | 67% | 999.7 hPa | 0 mm | - | 24 W/m² | - |
| 1777939878 | 18.33° C | 66% | 999.7 hPa | 0 mm | - | 16 W/m² | - |
| 1777939575 | 18.33° C | 65% | 1000 hPa | 0 mm | - | 24 W/m² | - |
| 1777939273 | 18.89° C | 65% | 999.6 hPa | 0 mm | - | 12 W/m² | - |
| 1777938969 | 19.44° C | 60% | 999.5 hPa | 0 mm | - | 6 W/m² | - |
| 1777938666 | 20° C | 56% | 999.7 hPa | 0 mm | - | 6 W/m² | - |
| 1777938363 | 20.56° C | 54% | 999.9 hPa | 0 mm | - | 8 W/m² | - |
| 1777938060 | 21.67° C | 51% | 999.6 hPa | 0 mm | - | 17 W/m² | - |
* Rain latest hour (hover to see other rain measurements)
** Current wind speed in m/s (hover to see current wind gust speed)